Time;durP1;ratioP1;P1;durP2;ratioP2;P2;SDS_P1;SDS_P2;PMS_P1;PMS_P2;Temp;Humidity;BMP_temperature;BMP_pressure;BME280_temperature;BME280_humidity;BME280_pressure;Samples;Min_cycle;Max_cycle;Signal;HPM_P1;HPM_P2
2021/06/24 00:02:08;;;;;;;7.90;4.35;;;18.80;78.70;;;;;;6216803;23;20359;-78
2021/06/24 00:04:35;;;;;;;6.65;4.00;;;18.70;78.70;;;;;;6220497;23;20213;-79
2021/06/24 00:07:05;;;;;;;6.70;3.58;;;18.70;78.80;;;;;;6221224;23;20024;-80
2021/06/24 00:09:32;;;;;;;7.20;3.73;;;18.60;79.00;;;;;;6221020;23;20327;-78
2021/06/24 00:11:59;;;;;;;10.43;6.03;;;18.60;79.10;;;;;;6220519;23;20028;-78
2021/06/24 00:14:26;;;;;;;9.13;3.92;;;18.60;79.80;;;;;;6219968;23;20031;-78
2021/06/24 00:16:54;;;;;;;6.68;4.13;;;18.60;79.60;;;;;;6220520;23;20020;-78
2021/06/24 00:19:22;;;;;;;7.80;4.35;;;18.60;79.60;;;;;;6219008;23;20030;-78
2021/06/24 00:21:49;;;;;;;7.43;3.85;;;18.50;79.80;;;;;;6220007;23;20094;-78
2021/06/24 00:24:18;;;;;;;8.05;4.20;;;18.50;79.90;;;;;;6220367;23;20332;-79
2021/06/24 00:26:45;;;;;;;7.25;4.07;;;18.40;80.20;;;;;;6241911;23;20044;-78
2021/06/24 00:29:13;;;;;;;6.93;3.55;;;18.40;80.20;;;;;;6218184;23;20044;-78
2021/06/24 00:31:40;;;;;;;4.97;3.17;;;18.40;80.30;;;;;;6224684;23;20075;-78
2021/06/24 00:34:07;;;;;;;7.05;3.85;;;18.40;80.30;;;;;;6222822;23;20231;-78
2021/06/24 00:36:34;;;;;;;11.23;4.32;;;18.40;80.40;;;;;;6224889;23;20032;-78
2021/06/24 00:39:01;;;;;;;7.88;3.83;;;18.30;80.40;;;;;;6224691;23;20025;-78
2021/06/24 00:41:33;;;;;;;5.40;3.35;;;18.30;80.50;;;;;;6224308;23;20036;-78
2021/06/24 00:44:00;;;;;;;4.73;3.23;;;18.40;80.00;;;;;;6226522;23;20024;-78
2021/06/24 00:46:28;;;;;;;7.72;3.63;;;18.40;79.90;;;;;;6224382;23;20427;-79
2021/06/24 00:49:02;;;;;;;7.00;3.50;;;18.40;80.00;;;;;;6222702;23;20028;-78
2021/06/24 00:51:32;;;;;;;5.82;3.47;;;18.40;79.90;;;;;;6221250;23;20224;-78
2021/06/24 00:54:01;;;;;;;5.97;3.50;;;18.30;80.00;;;;;;6219918;23;20044;-79
2021/06/24 00:56:34;;;;;;;5.32;3.58;;;18.20;80.30;;;;;;6219974;23;20040;-78
2021/06/24 00:59:02;;;;;;;8.15;3.70;;;18.20;80.40;;;;;;6218046;23;20328;-78
2021/06/24 01:01:36;;;;;;;7.55;3.47;;;18.10;80.80;;;;;;6216123;23;20017;-78
2021/06/24 01:04:05;;;;;;;6.85;3.38;;;18.10;80.80;;;;;;6221446;23;20077;-78
2021/06/24 01:06:34;;;;;;;5.13;3.35;;;18.10;80.70;;;;;;6221159;23;20083;-78
2021/06/24 01:09:04;;;;;;;5.90;3.38;;;18.20;80.40;;;;;;6221627;23;20040;-78
2021/06/24 01:11:33;;;;;;;5.72;3.95;;;18.20;80.20;;;;;;6216985;23;20028;-78
2021/06/24 01:14:02;;;;;;;7.03;4.18;;;18.30;79.80;;;;;;6218331;23;20035;-78
2021/06/24 01:16:30;;;;;;;6.60;3.78;;;18.30;79.80;;;;;;6216320;23;20051;-78
2021/06/24 01:18:58;;;;;;;9.02;3.97;;;18.30;79.40;;;;;;6216857;23;20031;-78
2021/06/24 01:21:25;;;;;;;8.15;3.60;;;18.30;79.70;;;;;;6218140;23;20366;-80
2021/06/24 01:23:54;;;;;;;8.27;4.03;;;18.30;79.70;;;;;;6218734;23;21053;-78
2021/06/24 01:26:22;;;;;;;6.68;3.90;;;18.30;79.60;;;;;;6217401;23;20047;-78
2021/06/24 01:28:49;;;;;;;8.25;4.10;;;18.30;79.60;;;;;;6217199;23;20028;-78
2021/06/24 01:31:17;;;;;;;8.30;3.90;;;18.20;79.70;;;;;;6219106;23;20029;-78
2021/06/24 01:33:45;;;;;;;8.00;4.07;;;18.20;79.80;;;;;;6218873;23;20361;-78
2021/06/24 01:36:14;;;;;;;7.38;4.07;;;18.20;79.90;;;;;;6217014;23;20404;-78
2021/06/24 01:38:44;;;;;;;8.05;4.05;;;18.10;79.90;;;;;;6218854;23;20240;-78
2021/06/24 01:41:24;;;;;;;;;;;18.20;79.80;;;;;;6220373;23;20021;-78
2021/06/24 01:43:53;;;;;;;7.82;4.00;;;18.20;79.60;;;;;;6217671;23;20203;-78
2021/06/24 01:46:21;;;;;;;7.53;4.20;;;18.10;79.70;;;;;;6218803;23;20087;-79
2021/06/24 01:48:48;;;;;;;5.97;3.60;;;18.20;79.40;;;;;;6220311;23;20020;-79
2021/06/24 01:51:15;;;;;;;9.40;3.78;;;18.20;79.40;;;;;;6217914;23;20028;-79
2021/06/24 01:53:43;;;;;;;7.40;3.92;;;18.10;79.50;;;;;;6217820;23;20029;-78
2021/06/24 01:56:11;;;;;;;7.10;4.20;;;18.10;79.50;;;;;;6216252;23;20025;-78
2021/06/24 01:58:40;;;;;;;10.38;4.00;;;18.10;79.50;;;;;;6220193;23;20028;-78
2021/06/24 02:01:10;;;;;;;5.38;3.53;;;18.20;79.40;;;;;;6214670;23;20340;-78
2021/06/24 02:03:45;;;;;;;7.43;4.30;;;18.20;79.00;;;;;;6217944;23;20235;-78
2021/06/24 02:06:12;;;;;;;6.68;3.45;;;18.20;78.90;;;;;;6219151;23;20229;-78
2021/06/24 02:08:41;;;;;;;6.03;3.75;;;18.10;79.50;;;;;;6220149;23;20030;-78
2021/06/24 02:11:30;;;;;;;6.22;4.20;;;18.20;79.80;;;;;;6216837;23;20028;-78
2021/06/24 02:14:05;;;;;;;9.15;3.88;;;18.10;79.80;;;;;;6216985;23;20047;-79
2021/06/24 02:16:32;;;;;;;;;;;18.20;79.80;;;;;;6220111;23;20055;-78
2021/06/24 02:18:59;;;;;;;6.88;3.17;;;18.20;79.60;;;;;;6216374;23;19943;-78
2021/06/24 02:21:47;;;;;;;5.70;3.53;;;18.20;79.40;;;;;;6218848;23;20279;-79
2021/06/24 02:24:16;;;;;;;8.00;3.95;;;18.20;79.50;;;;;;6219097;23;20035;-79
2021/06/24 02:26:52;;;;;;;9.65;3.95;;;18.20;79.70;;;;;;6241923;23;20025;-77
2021/06/24 02:29:50;;;;;;;6.10;3.88;;;18.20;79.40;;;;;;6222129;23;20033;-78
2021/06/24 02:32:17;;;;;;;7.15;4.50;;;18.20;79.50;;;;;;6218197;23;20359;-79
2021/06/24 02:34:56;;;;;;;11.25;4.43;;;18.20;79.40;;;;;;6217738;23;20028;-78
2021/06/24 02:37:42;;;;;;;7.85;3.92;;;18.20;79.60;;;;;;6218103;23;20028;-78
2021/06/24 02:40:22;;;;;;;5.50;3.55;;;18.10;79.50;;;;;;6219883;23;20032;-77
2021/06/24 02:42:52;;;;;;;7.32;3.67;;;18.10;80.20;;;;;;6216454;23;20035;-78
2021/06/24 02:45:22;;;;;;;7.15;3.92;;;18.10;80.20;;;;;;6215930;23;20028;-79
2021/06/24 02:47:50;;;;;;;7.65;4.97;;;18.20;79.40;;;;;;6216974;23;20020;-78
2021/06/24 02:50:21;;;;;;;8.95;3.95;;;18.30;78.70;;;;;;6217720;23;20025;-77
2021/06/24 02:52:50;;;;;;;5.97;4.38;;;18.30;78.50;;;;;;6216825;23;20039;-78
2021/06/24 02:55:17;;;;;;;7.70;4.55;;;18.20;78.80;;;;;;6219737;23;20347;-78
2021/06/24 02:57:50;;;;;;;6.45;4.43;;;18.20;79.00;;;;;;6219684;23;20027;-77
2021/06/24 03:00:29;;;;;;;6.43;4.25;;;18.10;79.30;;;;;;6210298;23;20315;-77
2021/06/24 03:03:16;;;;;;;7.63;4.22;;;18.20;79.50;;;;;;6217938;23;20350;-78
2021/06/24 03:06:03;;;;;;;12.05;4.32;;;18.20;78.90;;;;;;6214264;23;20246;-79
2021/06/24 03:08:30;;;;;;;9.18;4.57;;;18.30;78.50;;;;;;6216389;23;20038;-79
2021/06/24 03:11:02;;;;;;;10.77;5.40;;;18.30;78.30;;;;;;6217649;23;20029;-79
2021/06/24 03:13:32;;;;;;;6.30;3.58;;;18.30;78.10;;;;;;6217028;23;20100;-79
2021/06/24 03:16:04;;;;;;;8.88;4.07;;;18.30;78.10;;;;;;6217987;23;20024;-78
2021/06/24 03:18:38;;;;;;;6.10;3.83;;;18.30;78.40;;;;;;6217186;23;20027;-78
2021/06/24 03:21:11;;;;;;;7.05;4.50;;;18.10;79.40;;;;;;6215830;23;20033;-79
2021/06/24 03:23:39;;;;;;;10.13;4.65;;;18.20;79.20;;;;;;6216688;23;20328;-78
2021/06/24 03:26:06;;;;;;;7.55;4.35;;;18.30;78.80;;;;;;6217098;23;20028;-79
2021/06/24 03:28:35;;;;;;;7.32;4.78;;;18.30;78.00;;;;;;6217921;23;20028;-78
2021/06/24 03:31:25;;;;;;;12.95;5.15;;;18.30;78.00;;;;;;6217931;23;20036;-78
2021/06/24 03:33:53;;;;;;;6.40;4.03;;;18.30;78.10;;;;;;6221796;23;20036;-79
2021/06/24 03:36:21;;;;;;;10.43;4.68;;;18.30;78.00;;;;;;6217929;23;20017;-78
2021/06/24 03:38:49;;;;;;;7.75;4.65;;;18.30;77.90;;;;;;6218445;23;20174;-79
2021/06/24 03:41:24;;;;;;;7.63;4.40;;;18.30;78.20;;;;;;6217179;23;20035;-78
2021/06/24 03:43:54;;;;;;;10.18;5.03;;;18.30;78.20;;;;;;6216708;23;20021;-79
2021/06/24 03:46:22;;;;;;;6.82;4.60;;;18.30;78.10;;;;;;6220019;23;20031;-78
2021/06/24 03:48:52;;;;;;;8.80;4.95;;;18.30;77.90;;;;;;6217218;23;20028;-79
2021/06/24 03:51:21;;;;;;;11.90;4.95;;;18.40;77.70;;;;;;6213052;23;20243;-78
2021/06/24 03:53:57;;;;;;;8.38;4.50;;;18.40;77.60;;;;;;6218594;23;20308;-79
2021/06/24 03:56:24;;;;;;;6.72;4.32;;;18.40;77.90;;;;;;6220107;23;20024;-78
2021/06/24 03:58:58;;;;;;;8.10;4.80;;;18.30;78.40;;;;;;6216619;23;20240;-78
2021/06/24 04:01:26;;;;;;;8.88;5.03;;;18.30;78.20;;;;;;6212392;23;20031;-79
2021/06/24 04:03:54;;;;;;;9.18;4.95;;;18.40;77.90;;;;;;6217103;23;20034;-78
2021/06/24 04:06:29;;;;;;;8.13;4.53;;;18.40;77.80;;;;;;6216700;23;20031;-79
2021/06/24 04:08:56;;;;;;;9.95;4.47;;;18.40;77.40;;;;;;6216230;23;20088;-79
2021/06/24 04:11:29;;;;;;;8.80;4.88;;;18.50;77.10;;;;;;6215781;23;20032;-79
2021/06/24 04:14:06;;;;;;;7.10;4.30;;;18.50;77.40;;;;;;6213989;23;20094;-78
2021/06/24 04:16:53;;;;;;;8.10;5.05;;;18.50;77.60;;;;;;6221263;23;20026;-79
2021/06/24 04:19:22;;;;;;;10.07;4.90;;;18.40;78.10;;;;;;6217374;23;20020;-78
2021/06/24 04:21:52;;;;;;;9.73;4.85;;;18.40;77.70;;;;;;6218320;23;20080;-79
2021/06/24 04:24:20;;;;;;;11.30;5.00;;;18.50;77.30;;;;;;6218808;23;20052;-78
2021/06/24 04:26:48;;;;;;;7.57;4.68;;;18.50;77.30;;;;;;6216430;23;20076;-79
2021/06/24 04:29:20;;;;;;;7.55;4.65;;;18.50;77.50;;;;;;6214971;23;20016;-79
2021/06/24 04:31:50;;;;;;;7.73;5.37;;;18.50;77.70;;;;;;6214812;23;20025;-78
2021/06/24 04:34:18;;;;;;;8.43;5.23;;;18.50;77.40;;;;;;6215858;23;20013;-79
2021/06/24 04:37:19;;;;;;;;;;;18.60;77.20;;;;;;6206436;23;20335;-80
2021/06/24 04:39:48;;;;;;;8.45;5.03;;;18.60;77.20;;;;;;6240657;23;20070;-79
2021/06/24 04:42:20;;;;;;;9.02;5.43;;;18.50;77.30;;;;;;6214695;23;20677;-78
2021/06/24 04:45:06;;;;;;;10.23;5.40;;;18.60;77.80;;;;;;6215232;23;20028;-79
2021/06/24 04:47:39;;;;;;;9.02;4.90;;;18.60;78.10;;;;;;6214236;23;20025;-80
2021/06/24 04:50:07;;;;;;;11.32;6.07;;;18.50;79.20;;;;;;6214724;23;20051;-79
2021/06/24 04:52:55;;;;;;;7.80;4.93;;;18.50;79.70;;;;;;6212800;23;20024;-78
2021/06/24 04:55:38;;;;;;;9.95;6.07;;;18.40;80.10;;;;;;6214646;23;20020;-79
2021/06/24 04:58:06;;;;;;;12.23;5.68;;;18.30;80.10;;;;;;6213813;23;20220;-78
2021/06/24 05:00:37;;;;;;;13.32;6.82;;;18.20;82.20;;;;;;6211366;23;20088;-78
2021/06/24 05:03:23;;;;;;;11.43;6.15;;;18.20;83.10;;;;;;6217401;23;20039;-78
2021/06/24 05:05:53;;;;;;;;;;;18.20;83.10;;;;;;6217114;23;20043;-78
2021/06/24 05:08:24;;;;;;;8.73;6.03;;;18.20;82.50;;;;;;6216846;23;19927;-79
2021/06/24 05:10:51;;;;;;;10.32;6.20;;;18.30;83.30;;;;;;6213595;23;20025;-79
2021/06/24 05:13:18;;;;;;;10.40;5.78;;;18.40;81.00;;;;;;6213983;23;20020;-79
2021/06/24 05:15:46;;;;;;;10.48;6.13;;;18.30;81.20;;;;;;6218541;23;20024;-79
2021/06/24 05:18:15;;;;;;;9.18;5.88;;;18.20;81.70;;;;;;6219315;23;20028;-79
2021/06/24 05:20:44;;;;;;;8.85;5.20;;;18.20;81.30;;;;;;6216835;23;20216;-79
2021/06/24 05:23:13;;;;;;;8.48;5.63;;;18.30;81.20;;;;;;6217498;23;20024;-79
2021/06/24 05:25:42;;;;;;;11.73;6.45;;;18.40;80.40;;;;;;6221978;23;20029;-79
2021/06/24 05:28:10;;;;;;;9.88;6.53;;;18.50;80.80;;;;;;6216452;23;20060;-79
2021/06/24 05:30:38;;;;;;;14.25;5.85;;;18.50;80.60;;;;;;6217047;23;20021;-79
2021/06/24 05:33:05;;;;;;;9.75;5.97;;;18.60;80.70;;;;;;6217379;23;20028;-80
2021/06/24 05:35:32;;;;;;;9.35;6.15;;;18.60;81.20;;;;;;6222846;23;20017;-80
2021/06/24 05:38:00;;;;;;;9.00;5.45;;;18.50;82.30;;;;;;6223382;23;20291;-80
2021/06/24 05:40:34;;;;;;;9.15;5.50;;;18.60;81.90;;;;;;6217541;23;20519;-80
2021/06/24 05:43:03;;;;;;;10.50;5.90;;;18.80;81.10;;;;;;6218684;23;20013;-79
2021/06/24 05:45:30;;;;;;;9.63;5.63;;;18.90;80.40;;;;;;6221421;23;20075;-80
2021/06/24 05:47:58;;;;;;;10.68;5.82;;;18.80;80.60;;;;;;6216719;23;20023;-79
2021/06/24 05:50:29;;;;;;;9.70;5.72;;;18.90;80.40;;;;;;6219907;23;20027;-80
2021/06/24 05:52:56;;;;;;;9.80;6.07;;;18.90;79.90;;;;;;6221785;23;20035;-80
2021/06/24 05:55:47;;;;;;;13.93;7.03;;;19.00;79.30;;;;;;6221571;23;20031;-79
2021/06/24 05:58:16;;;;;;;10.52;5.82;;;19.10;80.00;;;;;;6216183;23;20051;-79
2021/06/24 06:00:43;;;;;;;;;;;19.10;79.80;;;;;;6215986;23;20024;-79
2021/06/24 06:03:13;;;;;;;9.65;5.70;;;19.10;80.00;;;;;;6220906;23;19927;-79
2021/06/24 06:05:40;;;;;;;8.57;5.40;;;19.10;80.10;;;;;;6216665;23;20024;-78
2021/06/24 06:08:08;;;;;;;8.52;5.75;;;19.10;80.20;;;;;;6218344;23;20071;-79
2021/06/24 06:10:37;;;;;;;11.32;5.47;;;19.20;79.50;;;;;;6216784;23;20035;-78
2021/06/24 06:13:05;;;;;;;8.43;5.25;;;19.20;78.90;;;;;;6219066;23;20240;-80
2021/06/24 06:15:34;;;;;;;8.70;5.68;;;19.10;78.90;;;;;;6215840;23;20227;-80
2021/06/24 06:18:10;;;;;;;11.02;6.60;;;19.10;78.80;;;;;;6216108;23;20091;-81
2021/06/24 06:20:38;;;;;;;9.00;5.35;;;19.10;78.80;;;;;;6242271;23;20055;-81
2021/06/24 06:23:05;;;;;;;12.10;6.18;;;19.00;79.10;;;;;;6216548;23;20384;-80
2021/06/24 06:25:34;;;;;;;10.20;5.78;;;19.00;78.80;;;;;;6241437;23;20033;-79
2021/06/24 06:28:02;;;;;;;7.60;5.25;;;18.90;79.40;;;;;;6217215;23;20024;-80
2021/06/24 06:30:30;;;;;;;9.27;5.43;;;19.10;79.50;;;;;;6218015;23;20009;-78
2021/06/24 06:32:59;;;;;;;10.63;5.72;;;19.10;78.70;;;;;;6215520;23;20039;-79
2021/06/24 06:35:26;;;;;;;8.63;5.35;;;19.10;78.30;;;;;;6218636;23;20031;-80
2021/06/24 06:37:53;;;;;;;14.15;7.07;;;19.20;78.00;;;;;;6218652;23;20020;-81
2021/06/24 06:40:21;;;;;;;9.98;6.28;;;19.20;78.30;;;;;;6216184;23;20032;-80
2021/06/24 06:42:48;;;;;;;8.60;5.70;;;19.10;78.40;;;;;;6218265;23;20035;-80
2021/06/24 06:45:20;;;;;;;11.02;5.95;;;19.00;78.40;;;;;;6216329;23;20028;-80
2021/06/24 06:47:47;;;;;;;11.35;6.10;;;19.10;78.80;;;;;;6218481;23;20336;-80
2021/06/24 06:50:16;;;;;;;13.25;6.60;;;19.10;78.20;;;;;;6216467;23;20041;-81
2021/06/24 06:52:43;;;;;;;10.97;6.00;;;19.10;78.80;;;;;;6216809;23;20264;-79
2021/06/24 06:55:12;;;;;;;11.20;6.40;;;18.90;79.40;;;;;;6218738;23;20076;-79
2021/06/24 06:57:40;;;;;;;11.33;6.17;;;18.70;79.90;;;;;;6216076;23;20559;-79
2021/06/24 07:00:10;;;;;;;12.63;6.68;;;18.60;80.90;;;;;;6212485;23;20530;-78
2021/06/24 07:02:38;;;;;;;11.00;6.85;;;18.60;81.40;;;;;;6214464;23;20029;-80
2021/06/24 07:05:08;;;;;;;9.38;6.43;;;18.60;81.80;;;;;;6217789;23;20017;-79
2021/06/24 07:07:36;;;;;;;13.00;7.28;;;18.60;82.00;;;;;;6219525;23;20273;-80
2021/06/24 07:10:04;;;;;;;14.48;7.20;;;18.40;82.20;;;;;;6220624;23;20328;-79
2021/06/24 07:12:33;;;;;;;11.13;6.50;;;18.40;82.50;;;;;;6217504;23;20078;-79
2021/06/24 07:15:00;;;;;;;12.60;6.95;;;18.30;82.90;;;;;;6219893;23;20343;-79
2021/06/24 07:17:31;;;;;;;13.85;6.03;;;18.30;82.90;;;;;;6219805;23;20020;-77
2021/06/24 07:19:59;;;;;;;12.52;6.72;;;18.20;83.20;;;;;;6217588;23;20025;-79
2021/06/24 07:22:27;;;;;;;10.77;5.68;;;18.30;83.60;;;;;;6220533;23;20029;-79
2021/06/24 07:24:55;;;;;;;9.35;6.55;;;18.20;83.60;;;;;;6221617;23;20308;-80
2021/06/24 07:27:23;;;;;;;11.15;6.97;;;18.30;83.40;;;;;;6217338;23;20044;-79
2021/06/24 07:29:50;;;;;;;12.30;6.63;;;18.30;83.20;;;;;;6220209;23;20025;-79
2021/06/24 07:32:19;;;;;;;10.27;6.78;;;18.30;83.70;;;;;;6226740;23;20024;-78
2021/06/24 07:34:46;;;;;;;12.70;6.15;;;18.20;84.20;;;;;;6228534;23;20087;-78
2021/06/24 07:37:13;;;;;;;11.20;6.43;;;18.30;83.80;;;;;;6219410;23;20087;-79
2021/06/24 07:39:42;;;;;;;9.73;6.78;;;18.40;84.00;;;;;;6215339;23;20054;-78
2021/06/24 07:42:12;;;;;;;11.07;6.50;;;18.30;84.10;;;;;;6214748;23;20025;-78
2021/06/24 07:44:40;;;;;;;;;;;18.30;84.30;;;;;;6218419;23;20024;-78
2021/06/24 07:47:07;;;;;;;13.88;7.30;;;18.30;84.30;;;;;;6218415;23;20211;-78
2021/06/24 07:49:34;;;;;;;10.40;6.45;;;18.30;84.60;;;;;;6216748;23;20177;-77
2021/06/24 07:52:01;;;;;;;10.80;6.78;;;18.30;84.40;;;;;;6217748;23;20031;-79
2021/06/24 07:54:29;;;;;;;11.60;6.93;;;18.40;83.90;;;;;;6219268;23;20366;-79
2021/06/24 07:56:56;;;;;;;13.55;7.55;;;18.40;84.20;;;;;;6220422;23;20024;-78
2021/06/24 07:59:24;;;;;;;10.82;7.10;;;18.40;84.20;;;;;;6215719;23;20220;-79
2021/06/24 08:01:52;;;;;;;13.52;7.47;;;18.40;84.60;;;;;;6213670;23;20040;-79
2021/06/24 08:04:19;;;;;;;11.60;6.88;;;18.30;84.80;;;;;;6220371;23;20028;-78
2021/06/24 08:06:47;;;;;;;12.02;6.50;;;18.30;85.10;;;;;;6216427;23;20047;-79
2021/06/24 08:09:15;;;;;;;12.75;7.50;;;18.20;85.40;;;;;;6244433;23;20341;-80
2021/06/24 08:11:42;;;;;;;10.40;6.10;;;18.20;85.70;;;;;;6217630;23;20024;-79
2021/06/24 08:14:10;;;;;;;10.05;7.05;;;18.20;85.00;;;;;;6217223;23;20032;-79
2021/06/24 08:16:38;;;;;;;11.98;6.82;;;18.20;84.70;;;;;;6213649;23;20320;-79
2021/06/24 08:19:06;;;;;;;13.50;7.00;;;18.10;85.00;;;;;;6220008;23;20012;-79
2021/06/24 08:21:33;;;;;;;12.10;6.72;;;18.20;85.20;;;;;;6214794;23;20386;-80
2021/06/24 08:24:00;;;;;;;10.38;7.30;;;18.20;85.00;;;;;;6217098;23;20025;-79
2021/06/24 08:26:31;;;;;;;19.27;7.38;;;18.20;85.10;;;;;;6215857;23;20021;-79
2021/06/24 08:28:58;;;;;;;12.90;7.30;;;18.20;85.40;;;;;;6216888;23;20025;-79
2021/06/24 08:31:26;;;;;;;13.77;7.10;;;18.10;85.30;;;;;;6218355;23;20059;-79
2021/06/24 08:33:54;;;;;;;15.43;7.43;;;18.00;86.30;;;;;;6219041;23;20059;-79
2021/06/24 08:36:22;;;;;;;11.55;6.90;;;17.90;85.80;;;;;;6215990;23;20220;-79
2021/06/24 08:38:50;;;;;;;12.38;7.03;;;18.00;85.90;;;;;;6218569;23;20020;-79
2021/06/24 08:41:19;;;;;;;13.65;7.45;;;18.10;86.00;;;;;;6215997;23;20088;-79
2021/06/24 08:43:48;;;;;;;14.10;6.83;;;18.10;85.30;;;;;;6215754;23;20201;-79
2021/06/24 08:46:17;;;;;;;10.20;7.23;;;18.00;85.00;;;;;;6177596;23;20268;-79
2021/06/24 08:48:49;;;;;;;13.40;6.70;;;17.60;85.80;;;;;;491741;23;10022880;-78
2021/06/24 08:51:19;;;;;;;12.05;6.63;;;17.60;86.50;;;;;;6241634;23;20077;-79
2021/06/24 08:53:47;;;;;;;16.17;7.82;;;17.50;87.00;;;;;;6221061;23;20024;-79
2021/06/24 08:56:16;;;;;;;10.95;7.00;;;17.60;87.80;;;;;;6221514;23;20099;-79
2021/06/24 08:58:46;;;;;;;21.43;7.53;;;17.60;86.00;;;;;;6223111;23;20027;-79
2021/06/24 09:01:13;;;;;;;11.15;6.82;;;17.70;86.70;;;;;;6216581;23;20393;-79
2021/06/24 09:03:45;;;;;;;12.43;7.32;;;17.70;87.00;;;;;;6219849;23;20055;-79
2021/06/24 09:06:13;;;;;;;10.38;6.45;;;17.50;87.00;;;;;;6218677;23;20035;-78
2021/06/24 09:08:44;;;;;;;11.73;7.47;;;17.40;87.40;;;;;;6218747;23;20440;-79
2021/06/24 09:11:18;;;;;;;10.60;6.85;;;17.50;87.50;;;;;;6221901;23;20032;-78
2021/06/24 09:13:58;;;;;;;10.80;6.88;;;17.40;87.70;;;;;;6221366;23;20017;-80
2021/06/24 09:16:26;;;;;;;;;;;17.60;87.30;;;;;;6222168;23;20035;-79
2021/06/24 09:19:12;;;;;;;11.32;6.55;;;17.60;86.90;;;;;;6220975;23;19962;-80
2021/06/24 09:21:39;;;;;;;13.00;6.97;;;17.60;87.10;;;;;;6221519;23;20297;-80
2021/06/24 09:24:21;;;;;;;12.32;7.18;;;17.70;88.20;;;;;;6223690;23;20025;-77
2021/06/24 09:26:51;;;;;;;13.63;7.47;;;17.70;87.70;;;;;;6216304;23;20300;-79
2021/06/24 09:29:19;;;;;;;;;;;17.70;87.40;;;;;;6221285;23;20228;-78
2021/06/24 09:31:51;;;;;;;10.98;6.57;;;17.60;87.30;;;;;;6221037;23;19918;-79
2021/06/24 09:34:22;;;;;;;8.85;5.63;;;17.70;87.00;;;;;;6217184;23;20063;-80
2021/06/24 09:36:51;;;;;;;13.55;7.10;;;17.60;87.10;;;;;;6220146;23;20044;-79
2021/06/24 09:39:33;;;;;;;12.65;6.78;;;17.50;88.30;;;;;;6221196;23;20048;-79
2021/06/24 09:42:04;;;;;;;9.35;6.50;;;17.60;87.50;;;;;;6219951;23;20040;-80
2021/06/24 09:44:36;;;;;;;14.25;8.35;;;17.40;87.90;;;;;;6218842;23;20028;-79
2021/06/24 09:47:17;;;;;;;10.48;6.70;;;17.50;88.70;;;;;;6219893;23;20224;-80
2021/06/24 09:49:55;;;;;;;10.98;7.05;;;17.60;87.80;;;;;;6221124;23;20024;-78
2021/06/24 09:52:23;;;;;;;9.65;5.90;;;17.50;87.60;;;;;;6221124;23;20032;-79
2021/06/24 09:55:03;;;;;;;13.18;6.88;;;17.60;87.40;;;;;;6221418;23;20024;-79
2021/06/24 09:57:30;;;;;;;11.13;6.45;;;17.60;87.20;;;;;;6219218;23;20059;-79
2021/06/24 09:59:57;;;;;;;11.57;6.93;;;17.50;88.40;;;;;;6221277;23;20212;-79
2021/06/24 10:02:25;;;;;;;10.85;7.15;;;17.40;88.70;;;;;;6217315;23;20304;-79
2021/06/24 10:04:53;;;;;;;9.90;6.57;;;17.50;89.00;;;;;;6220927;23;20043;-80
2021/06/24 10:07:21;;;;;;;10.10;5.70;;;17.40;88.00;;;;;;6220373;23;20265;-79
2021/06/24 10:09:49;;;;;;;9.90;6.25;;;17.40;88.70;;;;;;6220367;23;20043;-79
2021/06/24 10:12:20;;;;;;;10.30;5.50;;;17.40;88.60;;;;;;6219669;23;20051;-80
2021/06/24 10:14:49;;;;;;;9.55;5.75;;;17.60;88.20;;;;;;6221777;23;20025;-81
2021/06/24 10:17:17;;;;;;;7.82;5.00;;;17.70;88.60;;;;;;6219928;23;20363;-80
2021/06/24 10:19:46;;;;;;;13.40;6.90;;;17.60;88.00;;;;;;6218422;23;20027;-80
2021/06/24 10:22:16;;;;;;;10.68;5.88;;;17.60;88.10;;;;;;6221006;23;20028;-79
2021/06/24 10:24:49;;;;;;;9.18;5.63;;;17.70;88.10;;;;;;6220884;23;20223;-79
2021/06/24 10:27:18;;;;;;;10.30;6.10;;;18.00;87.90;;;;;;6222186;23;20387;-79
2021/06/24 10:29:49;;;;;;;9.48;5.75;;;18.10;87.40;;;;;;6223289;23;20027;-79
2021/06/24 10:32:31;;;;;;;8.73;5.22;;;18.10;87.70;;;;;;6222699;23;20248;-80
2021/06/24 10:35:00;;;;;;;8.68;4.97;;;18.20;86.90;;;;;;6221605;23;20102;-80
2021/06/24 10:37:32;;;;;;;8.85;5.72;;;18.20;86.50;;;;;;6223104;23;20081;-79
2021/06/24 10:40:01;;;;;;;;;;;18.10;86.50;;;;;;6224260;23;20021;-80
2021/06/24 10:42:33;;;;;;;10.52;6.55;;;18.10;87.40;;;;;;6223199;23;19945;-80
2021/06/24 10:45:02;;;;;;;9.82;6.43;;;18.00;86.80;;;;;;6223525;23;20268;-80
2021/06/24 10:47:39;;;;;;;9.73;6.20;;;18.10;86.70;;;;;;6223093;23;20016;-79
2021/06/24 10:50:39;;;;;;;9.68;6.07;;;18.20;86.60;;;;;;6223254;23;20228;-79
2021/06/24 10:53:39;;;;;;;10.40;6.13;;;18.20;85.90;;;;;;6225121;23;20489;-79
2021/06/24 10:56:47;;;;;;;10.65;5.80;;;18.40;86.10;;;;;;6223287;23;20025;-79
2021/06/24 10:59:29;;;;;;;11.90;5.97;;;18.40;85.70;;;;;;6223470;23;20013;-79
2021/06/24 11:02:12;;;;;;;10.07;5.82;;;18.40;86.30;;;;;;6218514;23;20016;-79
2021/06/24 11:04:42;;;;;;;11.38;6.70;;;18.50;86.20;;;;;;6222435;23;20020;-79
2021/06/24 11:07:30;;;;;;;;;;;18.40;86.10;;;;;;6223299;23;20025;-79
2021/06/24 11:10:25;;;;;;;11.98;6.65;;;18.50;86.20;;;;;;6237493;23;19926;-79
2021/06/24 11:12:55;;;;;;;10.38;6.75;;;18.50;86.20;;;;;;6223197;23;20025;-80
2021/06/24 11:15:46;;;;;;;9.50;6.03;;;18.60;86.00;;;;;;6225366;23;20025;-79
2021/06/24 11:18:47;;;;;;;11.63;7.32;;;18.60;85.60;;;;;;6222851;23;20249;-79
2021/06/24 11:21:19;;;;;;;11.30;5.97;;;18.60;85.80;;;;;;6224155;23;20033;-80
2021/06/24 11:23:49;;;;;;;9.73;5.75;;;18.60;85.40;;;;;;6223572;23;20040;-81
2021/06/24 11:26:18;;;;;;;13.45;6.47;;;18.70;85.20;;;;;;6224350;23;20028;-80
2021/06/24 11:28:48;;;;;;;7.13;4.90;;;18.80;85.30;;;;;;6223870;23;20193;-79
2021/06/24 11:31:19;;;;;;;;;;;18.90;84.50;;;;;;6225139;23;20028;-79
2021/06/24 11:34:01;;;;;;;9.77;5.38;;;18.90;84.60;;;;;;6248637;23;20092;-79
2021/06/24 11:36:29;;;;;;;9.43;5.97;;;18.90;84.80;;;;;;6224875;23;20031;-80
2021/06/24 11:38:56;;;;;;;10.50;6.38;;;18.80;84.90;;;;;;6223473;23;20336;-79
2021/06/24 11:41:24;;;;;;;10.50;6.35;;;18.90;84.50;;;;;;6225185;23;20111;-79
2021/06/24 11:43:59;;;;;;;9.75;6.03;;;18.90;84.70;;;;;;6224679;23;20012;-79
2021/06/24 11:46:31;;;;;;;9.50;5.97;;;19.00;85.00;;;;;;6221886;23;20042;-79
2021/06/24 11:49:11;;;;;;;10.38;6.38;;;19.10;84.40;;;;;;6222455;23;20028;-79
2021/06/24 12:03:06;;;;;;;12.48;6.70;;;19.30;83.70;;;;;;6225126;23;20329;-78
2021/06/24 12:05:34;;;;;;;10.55;6.30;;;19.50;83.50;;;;;;6223723;23;20195;-78
2021/06/24 12:08:01;;;;;;;10.65;6.28;;;19.70;82.90;;;;;;6219940;23;20251;-79
2021/06/24 12:10:29;;;;;;;11.35;5.95;;;19.70;82.40;;;;;;6217843;23;20031;-81
2021/06/24 12:12:56;;;;;;;10.52;6.47;;;19.70;82.10;;;;;;6220602;23;20323;-78
2021/06/24 12:15:24;;;;;;;10.82;6.78;;;19.80;83.00;;;;;;6221040;23;20081;-81
2021/06/24 12:17:53;;;;;;;10.35;6.55;;;19.80;82.80;;;;;;6220033;23;20071;-77
2021/06/24 12:20:23;;;;;;;10.65;5.85;;;19.80;82.90;;;;;;6220075;23;20398;-77
2021/06/24 12:22:58;;;;;;;11.60;6.95;;;19.80;82.50;;;;;;6221348;23;20048;-80
2021/06/24 13:04:41;;;;;;;6.17;3.83;;;24.10;68.30;;;;;;6267192;22;20030;-79
2021/06/24 13:07:08;;;;;;;8.20;3.72;;;25.00;66.00;;;;;;6289464;22;20788;-78
2021/06/24 13:09:40;;;;;;;5.50;3.17;;;25.40;63.00;;;;;;6287315;22;20066;-79
2021/06/24 13:12:12;;;;;;;5.53;3.13;;;26.00;62.50;;;;;;6288036;22;20031;-79
2021/06/24 13:14:41;;;;;;;6.70;3.22;;;26.40;60.50;;;;;;6260978;22;20034;-79
2021/06/24 13:17:13;;;;;;;8.23;3.77;;;27.20;58.60;;;;;;6261266;22;20107;-79
2021/06/24 13:19:43;;;;;;;7.55;3.53;;;28.10;56.50;;;;;;6285448;22;20105;-79
2021/06/24 13:22:13;;;;;;;6.38;3.22;;;28.50;55.30;;;;;;6259810;22;20259;-78
2021/06/24 13:24:42;;;;;;;4.55;2.75;;;28.60;54.80;;;;;;6286582;22;20242;-79
2021/06/24 13:27:12;;;;;;;5.13;3.03;;;28.30;54.90;;;;;;6259033;22;20027;-80
2021/06/24 13:29:41;;;;;;;5.45;3.00;;;26.90;56.80;;;;;;6284066;22;20020;-78
2021/06/24 13:32:10;;;;;;;5.95;2.38;;;26.60;57.10;;;;;;6257365;22;20272;-78
2021/06/24 13:34:40;;;;;;;5.60;2.70;;;26.80;57.80;;;;;;6281781;22;20090;-78
2021/06/24 13:37:20;;;;;;;5.18;2.92;;;26.60;57.70;;;;;;6282866;22;20075;-79
2021/06/24 13:39:48;;;;;;;5.32;2.67;;;25.60;59.30;;;;;;6280663;22;20016;-79
2021/06/24 13:42:16;;;;;;;5.78;3.22;;;25.10;60.30;;;;;;6284284;22;20016;-80
2021/06/24 13:44:43;;;;;;;6.85;2.88;;;24.80;61.90;;;;;;6282949;22;20027;-79
2021/06/24 13:47:10;;;;;;;4.60;2.90;;;24.30;63.30;;;;;;6285092;22;20295;-79
2021/06/24 13:49:38;;;;;;;5.53;2.70;;;24.60;63.40;;;;;;6257187;22;20024;-79
2021/06/24 13:52:06;;;;;;;4.47;2.35;;;23.90;63.50;;;;;;6284521;22;20071;-81
2021/06/24 13:54:39;;;;;;;5.25;2.40;;;24.40;63.60;;;;;;6258298;22;20323;-79
2021/06/24 13:57:08;;;;;;;3.95;2.83;;;24.70;62.30;;;;;;6258449;22;20073;-79